Shreveport, Louisiana
Current Conditions -  °F | °C
As of 10:53 PM on Friday 19 Dec 2014 (Local Time) from KDTN Reporting Station
Overcast Overcast  
Wind Chill: 42°   Ceiling: 1000
Heat Index: 46°   Visibility: 10mi
Dew Point: 42°   Wind: 8mph
Humidity: 86%   Direction: 50°NE
Pressure: 30.21"   Gusts: NA
Location:  32.51°N, 93.75°W
Report Text: KDTN 200453Z AUTO 05007KT 10SM OVC010 08/06 A3021 RMK AO2 CIG 007V014 SLP229 T00780056
Loading
Personal Weather Stations






























Interactive Weather Map New forecast layout! Learn more

10-Day Weather Forecast

Advertisements
Track Severe Weather on mobile